Time;durP1;ratioP1;P1;durP2;ratioP2;P2;SDS_P1;SDS_P2;PMS_P1;PMS_P2;Temp;Humidity;BMP_temperature;BMP_pressure;BME280_temperature;BME280_humidity;BME280_pressure;Samples;Min_cycle;Max_cycle;Signal;HPM_P1;HPM_P2
2021/04/16 00:01:33;;;;;;;31.98;20.83;;;9.50;90.80;;;;;;5094217;28;20058;-79
2021/04/16 00:03:59;;;;;;;31.65;19.70;;;9.50;90.80;;;;;;5094516;28;20032;-79
2021/04/16 00:06:25;;;;;;;33.38;18.13;;;9.50;90.90;;;;;;5090995;28;20501;-79
2021/04/16 00:08:51;;;;;;;32.45;17.88;;;9.50;91.00;;;;;;5094616;28;20020;-79
2021/04/16 00:11:24;;;;;;;31.52;18.55;;;9.50;91.00;;;;;;5094154;28;20058;-81
2021/04/16 00:13:50;;;;;;;29.30;16.75;;;9.50;91.00;;;;;;5081105;28;20042;-81
2021/04/16 00:16:19;;;;;;;27.85;17.02;;;9.50;91.10;;;;;;5090529;28;20470;-79
2021/04/16 00:18:45;;;;;;;28.55;16.70;;;9.50;91.10;;;;;;5093721;28;20347;-79
2021/04/16 00:21:11;;;;;;;29.95;16.88;;;9.50;91.10;;;;;;5095468;28;20023;-79
2021/04/16 00:23:37;;;;;;;35.20;19.15;;;9.50;91.30;;;;;;5092444;28;20458;-79
2021/04/16 00:26:03;;;;;;;27.52;16.15;;;9.50;91.30;;;;;;5094394;28;20047;-79
2021/04/16 00:28:29;;;;;;;26.27;15.63;;;9.50;91.30;;;;;;5093886;28;20414;-79
2021/04/16 00:30:59;;;;;;;29.55;17.95;;;9.50;91.30;;;;;;5095006;28;20020;-80
2021/04/16 00:33:25;;;;;;;26.08;16.58;;;9.60;91.40;;;;;;5088443;28;20416;-79
2021/04/16 00:35:51;;;;;;;24.95;14.32;;;9.60;91.40;;;;;;5092929;28;20023;-79
2021/04/16 00:38:18;;;;;;;24.40;14.85;;;9.60;91.40;;;;;;5095423;28;20469;-79
2021/04/16 00:40:49;;;;;;;27.33;15.13;;;9.60;91.40;;;;;;5086963;28;20454;-79
2021/04/16 00:43:16;;;;;;;29.08;15.80;;;9.50;91.40;;;;;;5088848;28;20035;-79
2021/04/16 00:45:43;;;;;;;34.80;17.70;;;9.60;91.50;;;;;;5095126;28;20109;-79
2021/04/16 00:48:21;;;;;;;46.30;24.77;;;9.60;91.50;;;;;;5094250;28;20439;-79
2021/04/16 00:50:51;;;;;;;28.48;16.92;;;9.50;91.50;;;;;;5093462;28;20027;-80
2021/04/16 00:53:19;;;;;;;20.58;12.75;;;9.50;91.50;;;;;;5089246;28;20076;-80
2021/04/16 00:55:46;;;;;;;25.08;12.90;;;9.50;91.40;;;;;;5093230;28;20024;-80
2021/04/16 00:58:12;;;;;;;25.77;14.32;;;9.50;91.50;;;;;;5087233;28;20031;-80
2021/04/16 01:00:40;;;;;;;27.00;15.90;;;9.50;91.60;;;;;;5086681;28;20116;-80
2021/04/16 01:03:05;;;;;;;29.00;17.63;;;9.50;91.70;;;;;;5079177;28;20411;-79
2021/04/16 01:05:31;;;;;;;31.10;17.88;;;9.50;91.80;;;;;;5083691;28;20082;-79
2021/04/16 01:07:57;;;;;;;27.13;15.70;;;9.60;92.00;;;;;;5090479;28;20471;-80
2021/04/16 01:10:23;;;;;;;20.05;13.70;;;9.60;92.00;;;;;;5082542;28;20022;-80
2021/04/16 01:12:50;;;;;;;24.65;17.15;;;9.60;91.90;;;;;;5093570;28;20089;-80
2021/04/16 01:15:30;;;;;;;23.23;15.60;;;9.60;91.90;;;;;;5086142;28;20030;-77
2021/04/16 01:18:20;;;;;;;22.08;13.52;;;9.60;91.90;;;;;;5093112;28;20031;-79
2021/04/16 01:20:48;;;;;;;24.60;15.65;;;9.60;92.00;;;;;;5093760;28;20020;-79
2021/04/16 01:23:33;;;;;;;19.73;13.30;;;9.60;91.90;;;;;;5090371;28;20036;-79
2021/04/16 01:25:59;;;;;;;17.02;10.88;;;9.60;91.90;;;;;;5085062;28;20027;-80
2021/04/16 01:28:25;;;;;;;17.42;10.48;;;9.70;92.00;;;;;;5095033;28;20099;-79
2021/04/16 01:31:07;;;;;;;20.02;10.82;;;9.70;91.90;;;;;;5093559;28;20043;-80
2021/04/16 01:33:34;;;;;;;15.65;9.75;;;9.70;91.90;;;;;;5091302;28;20024;-79
2021/04/16 01:36:01;;;;;;;18.02;10.52;;;9.70;91.90;;;;;;5095695;28;20028;-79
2021/04/16 01:38:28;;;;;;;17.20;10.30;;;9.70;92.00;;;;;;5095481;28;20035;-79
2021/04/16 01:40:54;;;;;;;18.75;11.30;;;9.70;92.00;;;;;;5099539;28;20020;-82
2021/04/16 01:43:27;;;;;;;19.23;10.52;;;9.70;91.90;;;;;;5094074;28;20031;-79
2021/04/16 01:46:06;;;;;;;16.67;10.88;;;9.70;91.90;;;;;;5095808;28;20028;-79
2021/04/16 01:48:44;;;;;;;18.05;11.05;;;9.70;92.00;;;;;;5090376;28;20390;-79
2021/04/16 01:51:14;;;;;;;21.45;13.15;;;9.70;92.00;;;;;;5092694;28;20020;-79
2021/04/16 01:53:40;;;;;;;25.10;14.25;;;9.70;91.90;;;;;;5092356;28;20072;-79
2021/04/16 01:56:05;;;;;;;26.45;12.95;;;9.70;91.90;;;;;;5092307;28;20464;-80
2021/04/16 01:58:31;;;;;;;25.33;13.57;;;9.70;91.90;;;;;;5092771;28;20028;-79
2021/04/16 02:00:58;;;;;;;22.75;12.73;;;9.70;91.90;;;;;;5090896;28;20096;-79
2021/04/16 02:03:24;;;;;;;25.90;14.65;;;9.70;91.80;;;;;;5093805;28;20454;-79
2021/04/16 02:05:49;;;;;;;29.20;16.92;;;9.70;91.90;;;;;;5092401;28;20020;-79
2021/04/16 02:08:15;;;;;;;19.85;11.40;;;9.60;91.90;;;;;;5093521;28;20038;-79
2021/04/16 02:10:43;;;;;;;19.95;11.60;;;9.50;91.90;;;;;;5092187;28;20020;-80
2021/04/16 02:13:09;;;;;;;20.42;12.05;;;9.50;92.00;;;;;;5091982;28;20350;-80
2021/04/16 02:15:34;;;;;;;23.38;13.32;;;9.50;92.10;;;;;;5093228;28;20019;-81
2021/04/16 02:18:00;;;;;;;32.33;20.02;;;9.50;92.10;;;;;;5087786;28;20105;-80
2021/04/16 02:20:28;;;;;;;31.80;21.10;;;9.40;92.20;;;;;;5092398;28;20016;-80
2021/04/16 02:22:54;;;;;;;26.45;17.65;;;9.50;92.30;;;;;;5091804;28;20126;-83
2021/04/16 02:25:20;;;;;;;29.58;18.92;;;9.50;92.40;;;;;;5092014;28;20020;-80
2021/04/16 02:27:46;;;;;;;21.27;13.25;;;9.50;92.50;;;;;;5080144;28;20115;-80
2021/04/16 02:30:19;;;;;;;18.15;11.73;;;9.50;92.50;;;;;;5091730;28;20141;-80
2021/04/16 02:32:45;;;;;;;18.27;11.75;;;9.60;92.40;;;;;;5083424;28;20110;-80
2021/04/16 02:35:12;;;;;;;18.30;11.20;;;9.50;92.40;;;;;;5092703;28;20074;-80
2021/04/16 02:37:38;;;;;;;16.77;10.75;;;9.50;92.40;;;;;;5091932;28;20347;-80
2021/04/16 02:40:07;;;;;;;18.58;10.88;;;9.50;92.50;;;;;;5091848;28;20069;-80
2021/04/16 02:42:32;;;;;;;17.33;11.15;;;9.50;92.50;;;;;;5091971;28;20073;-80
2021/04/16 02:44:58;;;;;;;16.27;10.70;;;9.50;92.50;;;;;;5092957;28;20016;-81
2021/04/16 02:47:24;;;;;;;16.70;11.27;;;9.50;92.50;;;;;;5080523;28;20016;-80
2021/04/16 02:49:50;;;;;;;16.10;10.98;;;9.50;92.50;;;;;;5092035;28;20107;-80
2021/04/16 02:52:15;;;;;;;19.25;11.93;;;9.40;92.50;;;;;;5091462;28;20028;-81
2021/04/16 02:54:42;;;;;;;17.25;11.77;;;9.40;92.60;;;;;;5091620;28;20031;-81
2021/04/16 02:57:07;;;;;;;17.42;11.10;;;9.40;92.60;;;;;;5092922;28;20442;-81
2021/04/16 02:59:33;;;;;;;17.95;11.43;;;9.40;92.80;;;;;;5094014;28;20016;-80
2021/04/16 03:01:59;;;;;;;16.70;10.80;;;9.40;92.90;;;;;;5090803;28;20028;-80
2021/04/16 03:04:25;;;;;;;18.27;11.80;;;9.40;92.90;;;;;;5095407;28;20023;-80
2021/04/16 03:06:51;;;;;;;25.23;16.92;;;9.40;93.00;;;;;;5095776;28;20101;-80
2021/04/16 03:09:17;;;;;;;20.65;14.27;;;9.40;93.00;;;;;;5095656;28;20054;-80
2021/04/16 03:11:43;;;;;;;17.40;11.20;;;9.40;92.90;;;;;;5095724;28;20085;-79
2021/04/16 03:14:09;;;;;;;23.50;15.13;;;9.30;92.80;;;;;;5096926;28;20110;-80
2021/04/16 03:16:35;;;;;;;25.50;16.00;;;9.30;92.90;;;;;;5097498;28;20016;-79
2021/04/16 03:19:03;;;;;;;24.15;15.52;;;9.30;93.00;;;;;;5085475;28;20455;-80
2021/04/16 03:21:29;;;;;;;20.60;13.30;;;9.30;93.10;;;;;;5092966;28;20077;-80
2021/04/16 03:23:55;;;;;;;17.30;10.32;;;9.30;93.30;;;;;;5086195;28;20035;-80
2021/04/16 03:26:22;;;;;;;15.57;10.82;;;9.40;93.40;;;;;;5095642;28;20020;-80
2021/04/16 03:28:55;;;;;;;16.50;10.90;;;9.40;93.30;;;;;;5096423;28;20153;-80
2021/04/16 03:31:21;;;;;;;15.23;10.82;;;9.40;93.40;;;;;;5095789;28;20024;-80
2021/04/16 03:33:47;;;;;;;17.27;11.02;;;9.40;93.60;;;;;;5095108;28;20046;-78
2021/04/16 03:36:13;;;;;;;15.85;9.45;;;9.40;93.60;;;;;;5097959;28;20181;-79
2021/04/16 03:38:39;;;;;;;16.42;10.10;;;9.40;93.70;;;;;;5102722;28;20474;-84
2021/04/16 03:41:05;;;;;;;18.90;10.73;;;9.50;93.60;;;;;;5098818;28;20020;-79
2021/04/16 03:43:31;;;;;;;19.95;11.73;;;9.40;93.60;;;;;;5103616;28;20365;-79
2021/04/16 03:45:57;;;;;;;19.33;11.30;;;9.40;93.50;;;;;;5099201;28;20020;-79
2021/04/16 03:48:22;;;;;;;17.35;10.70;;;9.40;93.40;;;;;;5109038;28;20024;-79
2021/04/16 03:50:48;;;;;;;17.23;10.68;;;9.50;93.50;;;;;;5096816;28;20016;-79
2021/04/16 03:53:14;;;;;;;15.57;9.57;;;9.50;93.60;;;;;;5094995;28;20130;-79
2021/04/16 03:55:40;;;;;;;13.80;10.18;;;9.40;93.70;;;;;;5094794;28;20498;-79
2021/04/16 03:58:07;;;;;;;16.80;10.30;;;9.50;93.80;;;;;;5094750;28;20020;-79
2021/04/16 04:00:37;;;;;;;17.80;9.75;;;9.50;93.90;;;;;;5089790;28;20099;-79
2021/04/16 04:03:04;;;;;;;15.15;9.95;;;9.50;93.90;;;;;;5094212;28;20114;-80
2021/04/16 04:05:33;;;;;;;13.57;9.20;;;9.50;94.00;;;;;;5093473;28;20122;-79
2021/04/16 04:07:59;;;;;;;13.32;8.95;;;9.60;94.00;;;;;;5094523;28;20040;-78
2021/04/16 04:10:28;;;;;;;15.63;9.75;;;9.60;94.00;;;;;;5097745;28;20087;-79
2021/04/16 04:12:53;;;;;;;13.23;9.30;;;9.70;94.00;;;;;;5094563;28;20035;-79
2021/04/16 04:15:20;;;;;;;14.75;9.95;;;9.70;94.00;;;;;;5090510;28;20024;-79
2021/04/16 04:17:48;;;;;;;14.90;8.65;;;9.80;94.00;;;;;;5079796;28;20036;-80
2021/04/16 04:20:24;;;;;;;12.95;8.70;;;9.80;93.90;;;;;;5097469;28;20020;-80
2021/04/16 04:22:49;;;;;;;15.30;9.13;;;9.80;93.90;;;;;;5094764;28;20024;-80
2021/04/16 04:25:21;;;;;;;15.02;9.35;;;9.80;93.90;;;;;;5093737;28;20474;-80
2021/04/16 04:27:53;;;;;;;13.90;9.77;;;9.90;93.90;;;;;;5094384;28;20024;-80
2021/04/16 04:30:25;;;;;;;14.40;8.60;;;9.90;93.90;;;;;;5092985;28;20043;-80
2021/04/16 04:32:54;;;;;;;20.88;9.23;;;10.00;93.80;;;;;;5094202;28;20067;-78
2021/04/16 04:35:26;;;;;;;17.17;8.77;;;10.00;93.80;;;;;;5093877;28;20042;-78
2021/04/16 04:37:59;;;;;;;16.35;8.77;;;10.00;94.10;;;;;;5095147;28;20024;-78
2021/04/16 04:40:31;;;;;;;13.60;9.60;;;10.00;93.80;;;;;;5093387;28;20019;-79
2021/04/16 04:43:10;;;;;;;18.63;8.80;;;10.00;93.90;;;;;;5094683;28;20051;-79
2021/04/16 04:45:41;;;;;;;18.83;8.68;;;10.00;93.90;;;;;;5093477;28;20024;-78
2021/04/16 04:48:07;;;;;;;97.75;64.30;;;10.10;93.90;;;;;;5094441;28;20028;-78
2021/04/16 04:50:33;;;;;;;16.70;10.40;;;10.20;93.90;;;;;;5093590;28;20500;-78
2021/04/16 04:53:02;;;;;;;17.88;9.25;;;10.20;93.90;;;;;;5093852;28;20028;-78
2021/04/16 04:55:30;;;;;;;15.07;9.00;;;10.20;93.80;;;;;;5093790;28;20020;-78
2021/04/16 04:57:59;;;;;;;17.13;9.75;;;10.30;93.60;;;;;;5094426;28;20070;-78
2021/04/16 05:00:27;;;;;;;18.15;9.35;;;10.20;93.40;;;;;;5095590;28;20062;-77
2021/04/16 05:02:53;;;;;;;14.30;8.98;;;10.20;93.30;;;;;;5095233;28;20082;-82
2021/04/16 05:05:20;;;;;;;14.95;9.20;;;10.20;93.40;;;;;;5094025;28;20016;-82
2021/04/16 05:07:46;;;;;;;14.10;9.27;;;10.10;93.40;;;;;;5091206;28;20136;-82
2021/04/16 05:10:13;;;;;;;13.65;9.52;;;10.10;93.50;;;;;;5092606;28;20025;-82
2021/04/16 05:12:39;;;;;;;15.68;10.25;;;10.10;93.60;;;;;;5092267;28;20474;-77
2021/04/16 05:15:07;;;;;;;18.88;10.50;;;10.10;93.70;;;;;;5084904;28;20024;-78
2021/04/16 05:17:35;;;;;;;15.52;9.82;;;10.10;93.90;;;;;;5090304;28;20036;-79
2021/04/16 05:20:01;;;;;;;16.25;10.23;;;10.10;94.00;;;;;;5082650;28;20107;-77
2021/04/16 05:22:31;;;;;;;14.25;9.13;;;10.10;94.00;;;;;;5084000;28;20111;-77
2021/04/16 05:24:57;;;;;;;16.25;10.48;;;10.20;94.10;;;;;;5085701;28;20462;-78
2021/04/16 05:27:25;;;;;;;16.25;10.02;;;10.20;94.20;;;;;;5087900;28;20054;-72
2021/04/16 05:29:59;;;;;;;16.38;11.07;;;10.20;94.10;;;;;;5091161;28;20024;-84
2021/04/16 05:32:25;;;;;;;17.35;12.27;;;10.30;94.20;;;;;;5090208;28;20599;-74
2021/04/16 05:34:51;;;;;;;15.50;10.70;;;10.40;94.40;;;;;;5095820;28;20020;-82
2021/04/16 05:37:38;;;;;;;16.98;10.90;;;10.40;94.40;;;;;;5099504;28;20020;-79
2021/04/16 05:40:06;;;;;;;16.80;9.85;;;10.50;94.80;;;;;;5090301;28;20059;-72
2021/04/16 05:42:35;;;;;;;14.43;9.52;;;10.60;94.50;;;;;;5103055;28;20059;-76
2021/04/16 05:45:01;;;;;;;15.98;10.52;;;10.80;94.40;;;;;;5102306;28;20012;-75
2021/04/16 05:47:28;;;;;;;17.27;10.27;;;10.80;94.30;;;;;;5106867;28;20012;-80
2021/04/16 05:49:54;;;;;;;16.20;10.00;;;10.90;94.20;;;;;;5114276;28;20008;-77
2021/04/16 05:52:20;;;;;;;16.90;12.35;;;10.90;93.90;;;;;;5114646;28;20058;-76
2021/04/16 05:54:46;;;;;;;18.27;12.40;;;11.00;93.80;;;;;;5103611;28;20057;-76
2021/04/16 05:57:14;;;;;;;15.13;9.75;;;11.10;93.80;;;;;;5092908;28;20024;-75
2021/04/16 05:59:43;;;;;;;18.17;11.95;;;11.10;93.60;;;;;;5086311;28;20104;-75
2021/04/16 06:02:42;;;;;;;18.73;12.38;;;11.10;93.60;;;;;;5084941;28;20394;-75
2021/04/16 06:05:13;;;;;;;18.02;13.20;;;11.20;93.30;;;;;;5078562;28;20119;-75
2021/04/16 06:07:55;;;;;;;18.42;13.50;;;11.20;93.30;;;;;;5091344;28;20040;-75
2021/04/16 06:10:22;;;;;;;22.92;15.93;;;11.30;93.40;;;;;;5079076;28;20027;-73
2021/04/16 06:12:48;;;;;;;17.85;12.85;;;11.40;93.20;;;;;;5081538;28;20032;-74
2021/04/16 06:15:22;;;;;;;15.88;11.20;;;11.50;93.30;;;;;;5081533;28;20060;-76
2021/04/16 06:17:51;;;;;;;22.13;11.50;;;11.60;93.00;;;;;;5083167;28;20024;-71
2021/04/16 06:20:22;;;;;;;15.73;11.48;;;11.60;92.80;;;;;;5090430;28;20338;-70
2021/04/16 06:22:56;;;;;;;17.98;11.98;;;11.60;92.50;;;;;;5087251;28;20028;-75
2021/04/16 06:25:34;;;;;;;60.03;30.00;;;11.60;92.50;;;;;;5090321;28;20024;-73
2021/04/16 06:28:01;;;;;;;40.53;21.50;;;11.60;92.50;;;;;;5088098;28;20015;-73
2021/04/16 06:30:27;;;;;;;26.25;16.38;;;11.60;92.50;;;;;;5090346;28;20016;-73
2021/04/16 06:33:15;;;;;;;17.83;11.75;;;11.70;92.60;;;;;;5090230;28;20397;-72
2021/04/16 06:35:53;;;;;;;18.27;12.13;;;11.70;92.60;;;;;;5092529;28;20024;-73
2021/04/16 06:38:21;;;;;;;19.27;12.68;;;11.80;92.50;;;;;;5092760;28;20103;-73
2021/04/16 06:40:50;;;;;;;20.77;13.52;;;11.90;92.20;;;;;;5091342;28;20018;-73
2021/04/16 06:43:19;;;;;;;18.27;12.10;;;11.90;92.00;;;;;;5091492;28;20032;-72
2021/04/16 06:45:52;;;;;;;19.83;13.52;;;11.90;91.70;;;;;;5091647;28;20031;-72
2021/04/16 06:48:19;;;;;;;15.95;12.30;;;11.80;91.50;;;;;;5092268;28;20374;-72
2021/04/16 06:50:45;;;;;;;17.45;12.55;;;11.80;91.70;;;;;;5092845;28;20073;-73
2021/04/16 06:53:23;;;;;;;18.95;14.23;;;11.90;91.90;;;;;;5091747;28;20471;-73
2021/04/16 06:56:13;;;;;;;18.15;11.98;;;11.90;92.00;;;;;;5092852;28;20069;-71
2021/04/16 06:58:56;;;;;;;19.17;12.60;;;12.00;91.90;;;;;;5093205;28;20388;-71
2021/04/16 07:01:53;;;;;;;20.08;12.80;;;12.10;91.60;;;;;;5077619;28;20016;-72
2021/04/16 07:04:46;;;;;;;23.67;16.02;;;12.20;91.40;;;;;;5092691;28;20024;-72
2021/04/16 07:07:21;;;;;;;24.88;17.00;;;12.20;90.70;;;;;;5092961;28;20458;-72
2021/04/16 07:10:05;;;;;;;18.90;12.07;;;12.30;90.90;;;;;;5073472;28;20028;-72
2021/04/16 07:12:32;;;;;;;20.77;13.15;;;12.40;90.50;;;;;;5085596;28;20082;-74
2021/04/16 07:15:04;;;;;;;21.17;14.45;;;12.40;90.40;;;;;;5092468;28;20028;-72
2021/04/16 07:17:38;;;;;;;22.05;15.25;;;12.50;90.10;;;;;;5093368;28;20020;-74
2021/04/16 07:20:04;;;;;;;24.73;16.17;;;12.60;89.80;;;;;;5091941;28;20042;-74
2021/04/16 07:22:44;;;;;;;24.08;15.63;;;12.60;89.00;;;;;;5092873;28;20024;-72
2021/04/16 07:25:25;;;;;;;20.98;14.25;;;12.70;88.80;;;;;;5087022;28;20020;-74
2021/04/16 07:27:56;;;;;;;42.85;27.10;;;12.70;87.70;;;;;;5085275;28;20024;-73
2021/04/16 07:30:50;;;;;;;31.58;16.73;;;12.70;87.20;;;;;;5093609;28;20008;-72
2021/04/16 07:33:38;;;;;;;23.25;14.93;;;12.70;87.00;;;;;;5091889;28;20057;-74
2021/04/16 07:36:29;;;;;;;19.75;12.23;;;12.60;86.50;;;;;;5086201;28;20031;-73
2021/04/16 07:39:07;;;;;;;21.63;14.60;;;12.60;86.40;;;;;;5080581;28;20020;-73
2021/04/16 07:41:42;;;;;;;20.50;14.00;;;12.60;86.30;;;;;;5094413;28;20036;-73
2021/04/16 07:44:18;;;;;;;25.38;15.68;;;12.60;85.80;;;;;;5096555;28;20026;-71
2021/04/16 07:46:49;;;;;;;20.58;13.70;;;12.60;86.00;;;;;;5115354;28;20098;-75
2021/04/16 07:49:25;;;;;;;22.48;15.10;;;12.60;85.60;;;;;;5099264;28;20087;-73
2021/04/16 07:51:56;;;;;;;23.95;14.05;;;12.60;85.70;;;;;;5114369;28;20027;-74
2021/04/16 07:54:30;;;;;;;24.58;15.85;;;12.60;85.00;;;;;;5112911;28;20046;-73
2021/04/16 07:57:32;;;;;;;20.42;13.40;;;12.60;85.50;;;;;;5103193;28;20078;-73
2021/04/16 08:02:53;;;;;;;;;;;12.50;86.10;;;;;;5092723;28;20036;-74
2021/04/16 08:05:33;;;;;;;18.63;12.60;;;12.50;85.90;;;;;;5094992;28;20369;-73
2021/04/16 08:08:27;;;;;;;20.98;14.27;;;12.50;85.50;;;;;;5091176;28;20037;-73
2021/04/16 08:11:24;;;;;;;21.83;14.63;;;12.40;85.70;;;;;;5087919;28;20061;-73
2021/04/16 08:13:50;;;;;;;17.40;10.70;;;12.30;85.80;;;;;;5101277;28;20359;-74
2021/04/16 08:16:38;;;;;;;25.27;15.43;;;12.20;85.70;;;;;;5094851;28;20024;-74
2021/04/16 08:19:22;;;;;;;18.40;11.80;;;12.10;86.10;;;;;;5094499;28;20020;-74
2021/04/16 08:22:10;;;;;;;16.75;11.32;;;12.10;86.70;;;;;;5094452;28;20031;-73
2021/04/16 08:24:48;;;;;;;17.80;11.27;;;12.10;86.90;;;;;;5093402;28;20462;-74
2021/04/16 08:27:33;;;;;;;15.95;10.68;;;11.90;86.80;;;;;;5094156;28;20027;-73
2021/04/16 08:30:17;;;;;;;18.02;11.52;;;11.90;87.20;;;;;;5094159;28;20024;-73
2021/04/16 08:33:01;;;;;;;17.98;11.00;;;11.80;87.90;;;;;;5094522;28;20478;-74
2021/04/16 08:35:34;;;;;;;25.23;12.13;;;11.90;88.50;;;;;;5080276;28;20103;-74
2021/04/16 08:38:14;;;;;;;14.20;9.43;;;12.00;89.50;;;;;;5095127;28;20016;-73
2021/04/16 08:40:55;;;;;;;17.15;10.30;;;12.10;88.90;;;;;;5094379;28;20030;-74
2021/04/16 08:43:42;;;;;;;15.85;9.65;;;12.20;88.70;;;;;;5095783;28;20390;-74
2021/04/16 08:46:46;;;;;;;17.42;10.85;;;12.40;88.60;;;;;;5094379;28;20107;-73
2021/04/16 08:49:34;;;;;;;12.95;8.82;;;12.50;87.80;;;;;;5095853;28;20016;-73
2021/04/16 08:52:28;;;;;;;15.27;10.57;;;12.60;87.50;;;;;;5094228;28;20579;-73
2021/04/16 08:54:55;;;;;;;15.38;9.57;;;12.70;87.50;;;;;;5094855;28;20085;-73
2021/04/16 08:57:29;;;;;;;14.02;8.95;;;12.80;86.80;;;;;;5093114;28;20343;-73
2021/04/16 09:00:14;;;;;;;10.98;7.88;;;12.80;86.00;;;;;;5081959;28;20059;-73
2021/04/16 09:02:48;;;;;;;13.25;8.65;;;12.90;85.40;;;;;;5093785;28;20107;-74
2021/04/16 09:05:24;;;;;;;12.13;7.63;;;13.00;85.50;;;;;;5093448;28;20046;-74
2021/04/16 09:08:17;;;;;;;13.18;8.45;;;13.00;85.40;;;;;;5093533;28;20344;-74
2021/04/16 09:11:00;;;;;;;12.95;8.45;;;13.10;84.90;;;;;;5093856;28;20072;-72
2021/04/16 09:13:41;;;;;;;12.52;7.57;;;13.20;84.70;;;;;;5080703;28;20036;-72
2021/04/16 09:16:16;;;;;;;18.08;8.75;;;13.20;84.70;;;;;;5093540;28;20047;-72
2021/04/16 09:18:45;;;;;;;13.70;7.93;;;13.20;84.50;;;;;;5093736;28;20050;-73
2021/04/16 09:21:17;;;;;;;17.63;9.02;;;13.20;84.30;;;;;;5093406;28;20477;-73
2021/04/16 09:23:47;;;;;;;16.85;8.27;;;13.20;84.40;;;;;;5093808;28;20027;-72
2021/04/16 09:26:46;;;;;;;12.40;8.93;;;13.20;84.20;;;;;;5093127;28;20016;-73
2021/04/16 09:29:39;;;;;;;14.75;8.85;;;13.20;83.50;;;;;;5093114;28;20027;-72
2021/04/16 09:32:27;;;;;;;11.63;7.80;;;13.20;83.30;;;;;;5088006;28;20036;-73
2021/04/16 09:34:54;;;;;;;10.23;6.13;;;13.10;82.90;;;;;;5094528;28;20416;-73
2021/04/16 09:37:36;;;;;;;12.80;7.45;;;13.00;81.90;;;;;;5093641;28;20460;-72
2021/04/16 09:40:25;;;;;;;11.40;6.63;;;12.80;82.10;;;;;;5094043;28;20073;-73
2021/04/16 09:42:58;;;;;;;18.05;10.57;;;12.60;82.90;;;;;;5084025;28;20020;-72
2021/04/16 09:45:32;;;;;;;16.05;8.20;;;12.40;83.60;;;;;;5092881;28;20027;-73
2021/04/16 09:48:04;;;;;;;12.95;7.90;;;12.30;84.40;;;;;;5098678;28;20107;-73
2021/04/16 09:51:00;;;;;;;14.48;7.88;;;11.90;83.50;;;;;;5100477;28;20055;-73
2021/04/16 09:54:08;;;;;;;11.00;6.97;;;11.60;85.50;;;;;;5109050;28;20044;-73
2021/04/16 09:56:38;;;;;;;28.63;10.90;;;11.30;87.70;;;;;;5107721;28;20020;-73
2021/04/16 09:59:08;;;;;;;33.05;11.57;;;11.10;89.20;;;;;;5102603;28;20335;-74
2021/04/16 10:02:12;;;;;;;33.08;12.02;;;11.20;90.70;;;;;;5072772;28;20482;-75
2021/04/16 10:04:59;;;;;;;100.97;25.15;;;11.30;92.00;;;;;;5090311;28;20024;-75
2021/04/16 10:07:49;;;;;;;90.85;23.77;;;11.70;92.80;;;;;;5081059;28;20082;-74
2021/04/16 10:10:31;;;;;;;68.85;21.13;;;12.00;93.20;;;;;;5080524;28;20020;-74
2021/04/16 10:13:15;;;;;;;66.78;19.75;;;12.40;94.10;;;;;;5091886;28;20042;-75
2021/04/16 10:15:44;;;;;;;58.90;18.65;;;13.20;94.60;;;;;;5092312;28;20043;-74
2021/04/16 10:18:35;;;;;;;59.67;18.92;;;14.00;95.10;;;;;;5092006;28;20017;-75
2021/04/16 10:21:13;;;;;;;51.33;19.45;;;14.80;93.90;;;;;;5093297;28;20046;-75
2021/04/16 10:23:41;;;;;;;61.30;28.80;;;15.10;92.40;;;;;;5078260;28;20489;-75
2021/04/16 10:33:11;;;;;;;59.80;27.80;;;14.60;86.20;;;;;;5093611;28;20050;-73
2021/04/16 12:38:56;;;;;;;1.70;1.10;;;9.40;94.30;;;;;;5095546;28;20103;-73
2021/04/16 12:41:26;;;;;;;1.67;1.45;;;9.40;94.00;;;;;;5095551;28;20023;-72
2021/04/16 12:43:53;;;;;;;2.50;1.70;;;9.50;94.30;;;;;;5093797;28;20062;-73
2021/04/16 12:46:22;;;;;;;1.30;1.20;;;9.40;94.30;;;;;;5095109;28;20065;-73
2021/04/16 12:48:48;;;;;;;6.63;3.33;;;9.40;93.90;;;;;;5095206;28;20015;-73
2021/04/16 12:51:14;;;;;;;6.93;3.17;;;9.40;94.30;;;;;;5093838;28;20024;-73
2021/04/16 12:53:40;;;;;;;6.68;3.13;;;9.50;95.00;;;;;;5093496;28;20039;-72
2021/04/16 12:56:12;;;;;;;6.60;3.17;;;9.50;95.00;;;;;;5093546;28;20110;-73
2021/04/16 12:58:42;;;;;;;6.53;3.03;;;9.60;95.00;;;;;;5093776;28;20103;-73
2021/04/16 13:01:16;;;;;;;3.30;2.10;;;9.60;95.60;;;;;;5093297;28;20042;-73
2021/04/16 13:03:43;;;;;;;3.15;2.00;;;9.80;95.00;;;;;;5093264;28;20035;-73
2021/04/16 13:06:24;;;;;;;2.25;1.48;;;9.70;93.80;;;;;;5093677;28;20027;-73
2021/04/16 13:08:52;;;;;;;1.73;1.30;;;9.60;93.70;;;;;;5094997;28;20295;-73
2021/04/16 13:11:18;;;;;;;5.40;1.75;;;9.50;93.00;;;;;;5093133;28;20032;-73
2021/04/16 13:13:44;;;;;;;2.30;1.50;;;9.40;93.40;;;;;;5093549;28;20123;-73
2021/04/16 13:16:10;;;;;;;1.75;1.48;;;9.40;93.10;;;;;;5093337;28;20509;-73
2021/04/16 13:18:42;;;;;;;1.80;1.50;;;9.40;93.40;;;;;;5093440;28;20024;-74
2021/04/16 13:21:16;;;;;;;1.98;1.50;;;9.30;93.80;;;;;;5093294;28;20078;-74
2021/04/16 13:23:42;;;;;;;3.00;1.42;;;9.30;93.30;;;;;;5093635;28;20111;-72
2021/04/16 13:26:08;;;;;;;2.33;1.45;;;9.30;93.40;;;;;;5093459;28;20061;-72
2021/04/16 13:28:34;;;;;;;2.30;1.65;;;9.30;93.80;;;;;;5095211;28;20016;-73
2021/04/16 13:31:00;;;;;;;2.55;1.50;;;9.30;94.20;;;;;;5095471;28;20052;-72
2021/04/16 13:33:39;;;;;;;2.08;1.52;;;9.30;93.80;;;;;;5093405;28;20050;-72
2021/04/16 13:36:08;;;;;;;3.85;2.38;;;9.20;92.80;;;;;;5093462;28;20024;-72
2021/04/16 13:38:33;;;;;;;2.47;1.60;;;9.10;92.70;;;;;;5079207;28;20016;-73
2021/04/16 13:41:00;;;;;;;2.05;1.30;;;9.00;92.70;;;;;;5094889;28;20027;-72
2021/04/16 13:43:28;;;;;;;2.88;1.83;;;8.80;92.70;;;;;;5094351;28;20027;-73
2021/04/16 13:45:54;;;;;;;3.97;1.95;;;8.80;93.20;;;;;;5095660;28;20048;-73
2021/04/16 13:48:20;;;;;;;6.88;3.22;;;8.70;93.10;;;;;;5096099;28;20020;-72
2021/04/16 13:50:46;;;;;;;4.30;2.17;;;8.70;93.30;;;;;;5101224;28;20019;-72
2021/04/16 13:53:13;;;;;;;3.70;2.25;;;8.70;93.90;;;;;;5099618;28;20032;-72
2021/04/16 13:55:39;;;;;;;4.60;2.20;;;8.70;94.20;;;;;;5104835;28;20024;-73
2021/04/16 13:58:05;;;;;;;2.47;1.90;;;8.70;93.80;;;;;;5103807;28;20225;-72
2021/04/16 14:00:34;;;;;;;3.15;1.80;;;8.70;93.70;;;;;;5102140;28;20024;-72
2021/04/16 14:03:32;;;;;;;3.50;1.98;;;8.60;93.90;;;;;;5092862;28;20020;-71
2021/04/16 14:06:00;;;;;;;3.13;2.08;;;8.50;93.70;;;;;;5088584;28;20061;-72
2021/04/16 14:08:32;;;;;;;3.63;2.10;;;8.60;94.60;;;;;;5094122;28;20051;-71
2021/04/16 14:10:59;;;;;;;1.52;1.05;;;8.70;94.90;;;;;;5078570;28;20028;-72
2021/04/16 14:13:27;;;;;;;1.52;1.35;;;8.70;94.30;;;;;;5092306;28;20511;-72
2021/04/16 14:15:57;;;;;;;2.58;1.63;;;8.80;94.00;;;;;;5093551;28;20101;-72
2021/04/16 14:18:47;;;;;;;1.38;1.27;;;8.70;93.50;;;;;;5093951;28;20024;-72
2021/04/16 14:21:17;;;;;;;3.05;1.40;;;8.70;93.50;;;;;;5082174;28;20412;-73
2021/04/16 14:23:44;;;;;;;2.15;1.30;;;8.60;93.10;;;;;;5092126;28;20026;-72
2021/04/16 14:26:15;;;;;;;2.33;1.38;;;8.50;93.20;;;;;;5092189;28;20358;-72
2021/04/16 14:28:42;;;;;;;3.30;2.30;;;8.50;93.60;;;;;;5093463;28;20024;-72
2021/04/16 14:31:08;;;;;;;2.75;1.50;;;8.40;93.40;;;;;;5093675;28;20118;-72
2021/04/16 14:33:37;;;;;;;2.90;1.27;;;8.40;93.80;;;;;;5093193;28;20378;-72
2021/04/16 14:36:03;;;;;;;2.33;1.23;;;8.40;93.30;;;;;;5092152;28;20020;-72
2021/04/16 14:38:29;;;;;;;2.20;1.70;;;8.30;93.40;;;;;;5090661;28;20027;-72
2021/04/16 14:40:55;;;;;;;2.08;1.60;;;8.30;93.60;;;;;;5079944;28;20028;-73
2021/04/16 14:43:22;;;;;;;1.30;1.20;;;8.30;93.40;;;;;;5093107;28;20370;-73
2021/04/16 14:45:50;;;;;;;2.58;1.20;;;8.20;93.50;;;;;;5093176;28;20362;-72
2021/04/16 14:48:18;;;;;;;4.38;1.42;;;8.20;93.60;;;;;;5092113;28;20024;-72
2021/04/16 14:50:44;;;;;;;1.75;1.30;;;8.20;93.80;;;;;;5092038;28;20106;-72
2021/04/16 14:53:38;;;;;;;3.92;1.20;;;8.20;93.50;;;;;;5092836;28;20522;-72
2021/04/16 14:56:08;;;;;;;1.20;1.10;;;8.20;93.50;;;;;;5090632;28;20032;-71
2021/04/16 14:58:40;;;;;;;2.35;0.90;;;8.10;93.20;;;;;;5096214;28;20066;-71
2021/04/16 15:01:08;;;;;;;2.58;1.48;;;8.10;93.30;;;;;;5097103;28;20019;-72
2021/04/16 15:03:34;;;;;;;2.05;1.50;;;8.10;93.20;;;;;;5097076;28;20027;-73
2021/04/16 15:06:01;;;;;;;3.58;1.83;;;8.10;93.10;;;;;;5095517;28;20036;-72
2021/04/16 15:08:33;;;;;;;6.10;2.63;;;8.00;92.90;;;;;;5090139;28;20119;-71
2021/04/16 15:11:09;;;;;;;2.97;1.80;;;7.90;92.80;;;;;;5091061;28;20062;-71
2021/04/16 15:13:37;;;;;;;7.18;2.13;;;7.90;92.90;;;;;;5079632;28;20036;-71
2021/04/16 15:16:06;;;;;;;4.15;1.98;;;7.80;93.10;;;;;;5090503;28;20037;-71